sensor_id;sensor_type;location;lat;lon;timestamp;pressure;altitude;pressure_sealevel;temperature;humidity
38806;BME280;25635;51.146;17.162;2023-07-20T00:01:31;99489.04;;;17.13;68.67
38806;BME280;25635;51.146;17.162;2023-07-20T00:03:57;99484.69;;;17.12;68.81
38806;BME280;25635;51.146;17.162;2023-07-20T00:06:24;99483.92;;;17.13;68.82
38806;BME280;25635;51.146;17.162;2023-07-20T00:08:56;99485.20;;;17.16;69.32
38806;BME280;25635;51.146;17.162;2023-07-20T00:11:25;99495.44;;;17.19;69.43
38806;BME280;25635;51.146;17.162;2023-07-20T00:13:52;99496.46;;;17.20;69.28
38806;BME280;25635;51.146;17.162;2023-07-20T00:16:17;99493.86;;;17.19;69.37
38806;BME280;25635;51.146;17.162;2023-07-20T00:18:43;99498.87;;;17.17;69.50
38806;BME280;25635;51.146;17.162;2023-07-20T00:21:09;99507.23;;;17.16;69.54
38806;BME280;25635;51.146;17.162;2023-07-20T00:23:35;99511.32;;;17.15;70.01
38806;BME280;25635;51.146;17.162;2023-07-20T00:26:01;99517.86;;;17.11;70.41
38806;BME280;25635;51.146;17.162;2023-07-20T00:28:28;99525.73;;;17.04;70.33
38806;BME280;25635;51.146;17.162;2023-07-20T00:30:54;99531.46;;;16.98;72.35
38806;BME280;25635;51.146;17.162;2023-07-20T00:33:20;99538.35;;;16.86;72.13
38806;BME280;25635;51.146;17.162;2023-07-20T00:35:45;99534.71;;;16.80;72.03
38806;BME280;25635;51.146;17.162;2023-07-20T00:38:12;99530.51;;;16.75;72.57
38806;BME280;25635;51.146;17.162;2023-07-20T00:40:39;99539.35;;;16.70;72.53
38806;BME280;25635;51.146;17.162;2023-07-20T00:43:06;99543.55;;;16.67;73.57
38806;BME280;25635;51.146;17.162;2023-07-20T00:45:33;99537.67;;;16.60;73.43
38806;BME280;25635;51.146;17.162;2023-07-20T00:48:01;99541.78;;;16.59;73.56
38806;BME280;25635;51.146;17.162;2023-07-20T00:50:28;99539.25;;;16.56;73.80
38806;BME280;25635;51.146;17.162;2023-07-20T00:52:55;99536.70;;;16.54;73.90
38806;BME280;25635;51.146;17.162;2023-07-20T00:55:25;99534.45;;;16.54;74.42
38806;BME280;25635;51.146;17.162;2023-07-20T00:57:52;99529.88;;;16.53;74.34
38806;BME280;25635;51.146;17.162;2023-07-20T01:00:18;99519.35;;;16.53;73.99
38806;BME280;25635;51.146;17.162;2023-07-20T01:02:45;99496.48;;;16.56;73.68
38806;BME280;25635;51.146;17.162;2023-07-20T01:05:12;99491.48;;;16.58;73.56
38806;BME280;25635;51.146;17.162;2023-07-20T01:10:19;99502.27;;;16.65;74.04
38806;BME280;25635;51.146;17.162;2023-07-20T01:12:48;99510.11;;;16.71;74.01
38806;BME280;25635;51.146;17.162;2023-07-20T01:15:17;99511.64;;;16.76;74.25
38806;BME280;25635;51.146;17.162;2023-07-20T01:17:43;99526.48;;;16.78;74.31
38806;BME280;25635;51.146;17.162;2023-07-20T01:20:15;99527.10;;;16.76;74.15
38806;BME280;25635;51.146;17.162;2023-07-20T01:31:26;99518.62;;;16.69;74.39
38806;BME280;25635;51.146;17.162;2023-07-20T01:33:57;99513.28;;;16.71;74.41
38806;BME280;25635;51.146;17.162;2023-07-20T01:36:26;99511.92;;;16.74;74.67
38806;BME280;25635;51.146;17.162;2023-07-20T01:38:54;99508.28;;;16.76;74.68
38806;BME280;25635;51.146;17.162;2023-07-20T01:41:20;99504.48;;;16.78;74.56
38806;BME280;25635;51.146;17.162;2023-07-20T01:43:46;99495.00;;;16.78;74.57
38806;BME280;25635;51.146;17.162;2023-07-20T01:46:12;99494.40;;;16.76;74.51
38806;BME280;25635;51.146;17.162;2023-07-20T01:48:38;99496.47;;;16.73;74.51
38806;BME280;25635;51.146;17.162;2023-07-20T01:51:04;99501.16;;;16.70;74.65
38806;BME280;25635;51.146;17.162;2023-07-20T01:53:30;99504.46;;;16.67;74.41
38806;BME280;25635;51.146;17.162;2023-07-20T01:55:57;99505.72;;;16.66;74.31
38806;BME280;25635;51.146;17.162;2023-07-20T01:58:23;99503.67;;;16.65;74.37
38806;BME280;25635;51.146;17.162;2023-07-20T02:00:50;99505.73;;;16.62;74.39
38806;BME280;25635;51.146;17.162;2023-07-20T02:03:16;99503.90;;;16.59;74.32
38806;BME280;25635;51.146;17.162;2023-07-20T02:05:42;99502.16;;;16.55;74.32
38806;BME280;25635;51.146;17.162;2023-07-20T02:08:08;99501.30;;;16.51;74.16
38806;BME280;25635;51.146;17.162;2023-07-20T02:10:36;99500.73;;;16.48;74.39
38806;BME280;25635;51.146;17.162;2023-07-20T02:13:02;99505.04;;;16.42;74.75
38806;BME280;25635;51.146;17.162;2023-07-20T02:15:28;99509.75;;;16.34;75.25
38806;BME280;25635;51.146;17.162;2023-07-20T02:17:54;99500.95;;;16.22;75.65
38806;BME280;25635;51.146;17.162;2023-07-20T02:20:20;99503.50;;;16.12;75.69
38806;BME280;25635;51.146;17.162;2023-07-20T02:22:47;99508.14;;;16.06;75.27
38806;BME280;25635;51.146;17.162;2023-07-20T02:25:13;99507.08;;;16.01;75.14
38806;BME280;25635;51.146;17.162;2023-07-20T02:27:39;99501.91;;;15.99;75.05
38806;BME280;25635;51.146;17.162;2023-07-20T02:30:05;99505.77;;;15.95;74.94
38806;BME280;25635;51.146;17.162;2023-07-20T02:32:31;99507.31;;;15.91;75.03
38806;BME280;25635;51.146;17.162;2023-07-20T02:34:58;99508.93;;;15.87;75.05
38806;BME280;25635;51.146;17.162;2023-07-20T02:37:24;99503.34;;;15.81;75.01
38806;BME280;25635;51.146;17.162;2023-07-20T02:39:50;99501.42;;;15.76;74.96
38806;BME280;25635;51.146;17.162;2023-07-20T02:42:16;99505.15;;;15.70;75.08
38806;BME280;25635;51.146;17.162;2023-07-20T02:44:42;99509.16;;;15.67;75.20
38806;BME280;25635;51.146;17.162;2023-07-20T02:47:08;99509.63;;;15.64;75.29
38806;BME280;25635;51.146;17.162;2023-07-20T02:49:34;99512.91;;;15.60;75.19
38806;BME280;25635;51.146;17.162;2023-07-20T02:52:00;99515.81;;;15.58;75.10
38806;BME280;25635;51.146;17.162;2023-07-20T02:54:26;99515.48;;;15.53;75.18
38806;BME280;25635;51.146;17.162;2023-07-20T02:56:52;99514.95;;;15.49;75.26
38806;BME280;25635;51.146;17.162;2023-07-20T02:59:18;99514.38;;;15.45;75.39
38806;BME280;25635;51.146;17.162;2023-07-20T03:01:44;99514.32;;;15.43;75.41
38806;BME280;25635;51.146;17.162;2023-07-20T03:04:13;99512.02;;;15.38;75.56
38806;BME280;25635;51.146;17.162;2023-07-20T03:06:38;99516.71;;;15.35;75.64
38806;BME280;25635;51.146;17.162;2023-07-20T03:09:04;99514.02;;;15.32;75.69
38806;BME280;25635;51.146;17.162;2023-07-20T03:11:32;99511.14;;;15.29;75.96
38806;BME280;25635;51.146;17.162;2023-07-20T03:13:59;99509.39;;;15.25;76.17
38806;BME280;25635;51.146;17.162;2023-07-20T03:16:25;99507.61;;;15.20;76.13
38806;BME280;25635;51.146;17.162;2023-07-20T03:18:53;99509.61;;;15.18;76.23
38806;BME280;25635;51.146;17.162;2023-07-20T03:21:19;99516.08;;;15.15;76.77
38806;BME280;25635;51.146;17.162;2023-07-20T03:23:45;99515.79;;;15.08;76.88
38806;BME280;25635;51.146;17.162;2023-07-20T03:26:11;99513.70;;;15.03;77.20
38806;BME280;25635;51.146;17.162;2023-07-20T03:28:38;99513.56;;;14.97;78.52
38806;BME280;25635;51.146;17.162;2023-07-20T03:31:05;99510.62;;;14.92;78.31
38806;BME280;25635;51.146;17.162;2023-07-20T03:33:31;99508.11;;;14.88;79.31
38806;BME280;25635;51.146;17.162;2023-07-20T03:35:58;99515.42;;;14.85;79.85
38806;BME280;25635;51.146;17.162;2023-07-20T03:38:25;99518.98;;;14.84;79.31
38806;BME280;25635;51.146;17.162;2023-07-20T03:40:55;99517.30;;;14.86;79.86
38806;BME280;25635;51.146;17.162;2023-07-20T03:43:22;99519.14;;;14.89;80.00
38806;BME280;25635;51.146;17.162;2023-07-20T03:45:49;99518.05;;;14.90;79.97
38806;BME280;25635;51.146;17.162;2023-07-20T03:48:16;99518.64;;;14.93;80.35
38806;BME280;25635;51.146;17.162;2023-07-20T03:50:44;99517.58;;;14.93;80.99
38806;BME280;25635;51.146;17.162;2023-07-20T03:53:12;99516.64;;;14.95;80.59
38806;BME280;25635;51.146;17.162;2023-07-20T03:55:50;99516.72;;;14.97;80.38
38806;BME280;25635;51.146;17.162;2023-07-20T03:58:17;99517.83;;;15.00;80.62
38806;BME280;25635;51.146;17.162;2023-07-20T04:00:49;99521.05;;;15.04;80.67
38806;BME280;25635;51.146;17.162;2023-07-20T04:03:16;99522.54;;;15.06;80.84
38806;BME280;25635;51.146;17.162;2023-07-20T04:05:44;99520.14;;;15.09;80.56
38806;BME280;25635;51.146;17.162;2023-07-20T04:08:10;99512.68;;;15.11;81.30
38806;BME280;25635;51.146;17.162;2023-07-20T04:10:43;99515.60;;;15.08;81.77
38806;BME280;25635;51.146;17.162;2023-07-20T04:13:09;99514.02;;;15.09;81.54
38806;BME280;25635;51.146;17.162;2023-07-20T04:15:35;99513.35;;;15.12;81.46
38806;BME280;25635;51.146;17.162;2023-07-20T04:18:01;99513.55;;;15.16;81.44
38806;BME280;25635;51.146;17.162;2023-07-20T04:20:26;99518.43;;;15.22;81.44
38806;BME280;25635;51.146;17.162;2023-07-20T04:22:52;99521.95;;;15.32;81.53
38806;BME280;25635;51.146;17.162;2023-07-20T04:25:19;99531.87;;;15.43;81.80
38806;BME280;25635;51.146;17.162;2023-07-20T04:27:48;99533.62;;;15.52;82.73
38806;BME280;25635;51.146;17.162;2023-07-20T04:30:17;99532.65;;;15.59;82.49
38806;BME280;25635;51.146;17.162;2023-07-20T04:32:46;99531.50;;;15.66;82.65
38806;BME280;25635;51.146;17.162;2023-07-20T04:35:18;99537.67;;;15.70;83.09
38806;BME280;25635;51.146;17.162;2023-07-20T04:37:44;99537.80;;;15.76;82.34
38806;BME280;25635;51.146;17.162;2023-07-20T04:40:12;99540.75;;;15.86;82.30
38806;BME280;25635;51.146;17.162;2023-07-20T04:42:38;99546.41;;;15.94;82.40
38806;BME280;25635;51.146;17.162;2023-07-20T04:45:05;99548.46;;;16.00;81.91
38806;BME280;25635;51.146;17.162;2023-07-20T04:47:31;99546.17;;;16.09;81.93
38806;BME280;25635;51.146;17.162;2023-07-20T04:49:56;99546.30;;;16.18;81.72
38806;BME280;25635;51.146;17.162;2023-07-20T04:52:22;99549.64;;;16.27;81.72
38806;BME280;25635;51.146;17.162;2023-07-20T04:54:48;99550.21;;;16.34;81.71
38806;BME280;25635;51.146;17.162;2023-07-20T04:57:14;99554.90;;;16.40;81.73
38806;BME280;25635;51.146;17.162;2023-07-20T04:59:40;99560.33;;;16.45;81.56
38806;BME280;25635;51.146;17.162;2023-07-20T05:02:06;99561.55;;;16.49;81.55
38806;BME280;25635;51.146;17.162;2023-07-20T05:04:32;99564.98;;;16.55;81.43
38806;BME280;25635;51.146;17.162;2023-07-20T05:06:58;99562.20;;;16.63;81.42
38806;BME280;25635;51.146;17.162;2023-07-20T05:09:24;99561.55;;;16.70;81.14
38806;BME280;25635;51.146;17.162;2023-07-20T05:11:50;99561.88;;;16.78;81.23
38806;BME280;25635;51.146;17.162;2023-07-20T05:14:16;99566.42;;;16.88;80.81
38806;BME280;25635;51.146;17.162;2023-07-20T05:16:42;99576.05;;;16.97;80.84
38806;BME280;25635;51.146;17.162;2023-07-20T05:19:08;99576.39;;;17.06;81.06
38806;BME280;25635;51.146;17.162;2023-07-20T05:21:34;99573.58;;;17.13;80.57
38806;BME280;25635;51.146;17.162;2023-07-20T05:23:59;99575.00;;;17.21;80.91
38806;BME280;25635;51.146;17.162;2023-07-20T05:26:26;99581.93;;;17.27;80.51
38806;BME280;25635;51.146;17.162;2023-07-20T05:28:52;99584.84;;;17.37;81.12
38806;BME280;25635;51.146;17.162;2023-07-20T05:31:17;99589.92;;;17.45;80.70
38806;BME280;25635;51.146;17.162;2023-07-20T05:33:43;99594.17;;;17.52;80.56
38806;BME280;25635;51.146;17.162;2023-07-20T05:36:09;99595.89;;;17.57;80.51
38806;BME280;25635;51.146;17.162;2023-07-20T05:38:35;99598.33;;;17.62;80.25
38806;BME280;25635;51.146;17.162;2023-07-20T05:41:01;99604.66;;;17.73;80.31
38806;BME280;25635;51.146;17.162;2023-07-20T05:43:28;99608.02;;;17.81;80.05
38806;BME280;25635;51.146;17.162;2023-07-20T05:45:53;99611.96;;;17.87;79.58
38806;BME280;25635;51.146;17.162;2023-07-20T05:48:19;99612.40;;;17.93;79.55
38806;BME280;25635;51.146;17.162;2023-07-20T05:50:45;99607.53;;;17.95;79.35
38806;BME280;25635;51.146;17.162;2023-07-20T05:53:11;99610.32;;;17.96;79.23
38806;BME280;25635;51.146;17.162;2023-07-20T05:55:37;99611.77;;;17.99;79.24
38806;BME280;25635;51.146;17.162;2023-07-20T05:58:05;99609.05;;;18.04;79.12
38806;BME280;25635;51.146;17.162;2023-07-20T06:00:31;99600.83;;;18.07;78.98
38806;BME280;25635;51.146;17.162;2023-07-20T06:02:57;99599.33;;;18.12;79.20
38806;BME280;25635;51.146;17.162;2023-07-20T06:05:23;99598.41;;;18.13;78.93
38806;BME280;25635;51.146;17.162;2023-07-20T06:07:50;99600.55;;;18.12;78.69
38806;BME280;25635;51.146;17.162;2023-07-20T06:10:16;99598.75;;;18.17;78.48
38806;BME280;25635;51.146;17.162;2023-07-20T06:12:42;99599.09;;;18.20;78.32
38806;BME280;25635;51.146;17.162;2023-07-20T06:15:25;99596.67;;;18.23;77.93
38806;BME280;25635;51.146;17.162;2023-07-20T06:17:51;99604.39;;;18.28;78.13
38806;BME280;25635;51.146;17.162;2023-07-20T06:20:17;99609.01;;;18.31;78.07
38806;BME280;25635;51.146;17.162;2023-07-20T06:22:44;99610.59;;;18.38;78.40
38806;BME280;25635;51.146;17.162;2023-07-20T06:25:11;99611.70;;;18.48;78.76
38806;BME280;25635;51.146;17.162;2023-07-20T06:27:37;99617.83;;;18.59;78.62
38806;BME280;25635;51.146;17.162;2023-07-20T06:30:03;99617.91;;;18.68;78.44
38806;BME280;25635;51.146;17.162;2023-07-20T06:32:29;99621.20;;;18.77;78.28
38806;BME280;25635;51.146;17.162;2023-07-20T06:34:55;99621.65;;;18.92;78.28
38806;BME280;25635;51.146;17.162;2023-07-20T06:37:21;99617.92;;;19.10;78.06
38806;BME280;25635;51.146;17.162;2023-07-20T06:39:46;99620.94;;;19.26;77.66
38806;BME280;25635;51.146;17.162;2023-07-20T06:42:12;99623.55;;;19.37;76.94
38806;BME280;25635;51.146;17.162;2023-07-20T06:44:39;99628.30;;;19.51;76.71
38806;BME280;25635;51.146;17.162;2023-07-20T06:47:05;99630.14;;;19.62;76.41
38806;BME280;25635;51.146;17.162;2023-07-20T06:49:31;99634.05;;;19.72;75.95
38806;BME280;25635;51.146;17.162;2023-07-20T06:51:57;99635.88;;;19.81;75.78
38806;BME280;25635;51.146;17.162;2023-07-20T06:54:22;99633.06;;;19.93;75.49
38806;BME280;25635;51.146;17.162;2023-07-20T06:56:48;99633.75;;;20.03;75.24
38806;BME280;25635;51.146;17.162;2023-07-20T06:59:14;99630.84;;;20.14;74.60
38806;BME280;25635;51.146;17.162;2023-07-20T07:01:40;99631.39;;;20.17;74.17
38806;BME280;25635;51.146;17.162;2023-07-20T07:04:06;99631.88;;;20.24;74.01
38806;BME280;25635;51.146;17.162;2023-07-20T07:06:32;99631.45;;;20.32;74.00
38806;BME280;25635;51.146;17.162;2023-07-20T07:08:58;99634.42;;;20.41;74.03
38806;BME280;25635;51.146;17.162;2023-07-20T07:11:24;99639.09;;;20.53;73.60
38806;BME280;25635;51.146;17.162;2023-07-20T07:13:50;99641.16;;;20.60;73.15
38806;BME280;25635;51.146;17.162;2023-07-20T07:16:17;99638.98;;;20.67;72.82
38806;BME280;25635;51.146;17.162;2023-07-20T07:18:45;99641.33;;;20.78;72.34
38806;BME280;25635;51.146;17.162;2023-07-20T07:21:11;99640.52;;;20.89;72.44
38806;BME280;25635;51.146;17.162;2023-07-20T07:23:38;99638.55;;;21.08;72.76
38806;BME280;25635;51.146;17.162;2023-07-20T07:26:05;99641.56;;;21.31;72.01
38806;BME280;25635;51.146;17.162;2023-07-20T07:28:31;99640.52;;;21.42;71.05
38806;BME280;25635;51.146;17.162;2023-07-20T07:31:00;99640.05;;;21.64;71.82
38806;BME280;25635;51.146;17.162;2023-07-20T07:33:26;99642.05;;;21.92;70.65
38806;BME280;25635;51.146;17.162;2023-07-20T07:35:52;99643.42;;;22.12;70.45
38806;BME280;25635;51.146;17.162;2023-07-20T07:38:19;99644.48;;;22.35;70.35
38806;BME280;25635;51.146;17.162;2023-07-20T07:40:45;99646.93;;;22.57;69.33
38806;BME280;25635;51.146;17.162;2023-07-20T07:43:12;99646.20;;;22.73;68.31
38806;BME280;25635;51.146;17.162;2023-07-20T07:45:39;99647.80;;;22.92;68.32
38806;BME280;25635;51.146;17.162;2023-07-20T07:48:06;99644.27;;;23.12;68.08
38806;BME280;25635;51.146;17.162;2023-07-20T07:50:33;99645.95;;;23.39;67.28
38806;BME280;25635;51.146;17.162;2023-07-20T07:53:00;99650.58;;;23.55;66.25
38806;BME280;25635;51.146;17.162;2023-07-20T07:55:26;99649.94;;;23.51;64.71
38806;BME280;25635;51.146;17.162;2023-07-20T07:57:54;99652.80;;;23.48;64.20
38806;BME280;25635;51.146;17.162;2023-07-20T08:00:21;99653.70;;;23.51;64.69
38806;BME280;25635;51.146;17.162;2023-07-20T08:02:47;99650.85;;;23.58;64.81
38806;BME280;25635;51.146;17.162;2023-07-20T08:05:14;99648.15;;;23.74;64.58
38806;BME280;25635;51.146;17.162;2023-07-20T08:07:40;99647.04;;;23.90;63.49
38806;BME280;25635;51.146;17.162;2023-07-20T08:10:07;99649.86;;;23.98;63.59
38806;BME280;25635;51.146;17.162;2023-07-20T08:12:33;99650.41;;;24.02;62.97
38806;BME280;25635;51.146;17.162;2023-07-20T08:14:59;99658.92;;;24.08;62.69
38806;BME280;25635;51.146;17.162;2023-07-20T08:17:25;99660.64;;;24.08;62.00
38806;BME280;25635;51.146;17.162;2023-07-20T08:19:51;99661.29;;;24.07;61.60
38806;BME280;25635;51.146;17.162;2023-07-20T08:22:17;99659.19;;;24.04;61.38
38806;BME280;25635;51.146;17.162;2023-07-20T08:24:43;99659.86;;;24.07;61.32
38806;BME280;25635;51.146;17.162;2023-07-20T08:27:09;99662.28;;;24.01;60.67
38806;BME280;25635;51.146;17.162;2023-07-20T08:29:36;99659.52;;;23.97;60.61
38806;BME280;25635;51.146;17.162;2023-07-20T08:32:03;99657.93;;;23.92;60.78
38806;BME280;25635;51.146;17.162;2023-07-20T08:34:30;99654.52;;;23.97;60.42
38806;BME280;25635;51.146;17.162;2023-07-20T08:36:56;99653.92;;;24.00;60.47
38806;BME280;25635;51.146;17.162;2023-07-20T08:39:23;99653.05;;;24.10;60.26
38806;BME280;25635;51.146;17.162;2023-07-20T08:41:50;99653.89;;;24.23;59.96
38806;BME280;25635;51.146;17.162;2023-07-20T08:44:17;99654.95;;;24.40;59.96
38806;BME280;25635;51.146;17.162;2023-07-20T08:46:44;99652.86;;;24.64;59.67
38806;BME280;25635;51.146;17.162;2023-07-20T08:49:11;99658.10;;;24.82;57.58
38806;BME280;25635;51.146;17.162;2023-07-20T08:51:38;99657.11;;;24.95;57.77
38806;BME280;25635;51.146;17.162;2023-07-20T08:54:06;99655.15;;;25.06;56.64
38806;BME280;25635;51.146;17.162;2023-07-20T08:56:33;99657.44;;;25.04;56.45
38806;BME280;25635;51.146;17.162;2023-07-20T08:59:00;99659.67;;;25.10;56.19
38806;BME280;25635;51.146;17.162;2023-07-20T09:01:28;99663.12;;;25.19;56.27
38806;BME280;25635;51.146;17.162;2023-07-20T09:03:55;99667.23;;;25.28;55.91
38806;BME280;25635;51.146;17.162;2023-07-20T09:06:22;99660.16;;;25.39;55.68
38806;BME280;25635;51.146;17.162;2023-07-20T09:08:48;99659.48;;;25.39;55.10
38806;BME280;25635;51.146;17.162;2023-07-20T09:11:14;99659.38;;;25.42;56.02
38806;BME280;25635;51.146;17.162;2023-07-20T09:13:40;99659.55;;;25.46;54.65
38806;BME280;25635;51.146;17.162;2023-07-20T09:16:06;99658.04;;;25.46;54.12
38806;BME280;25635;51.146;17.162;2023-07-20T09:18:33;99657.72;;;25.41;53.96
38806;BME280;25635;51.146;17.162;2023-07-20T09:21:04;99658.54;;;25.30;53.20
38806;BME280;25635;51.146;17.162;2023-07-20T09:23:36;99657.30;;;25.13;53.56
38806;BME280;25635;51.146;17.162;2023-07-20T09:26:13;99660.15;;;25.09;54.11
38806;BME280;25635;51.146;17.162;2023-07-20T09:28:43;99659.39;;;25.07;53.38
38806;BME280;25635;51.146;17.162;2023-07-20T09:31:16;99662.34;;;25.01;53.36
38806;BME280;25635;51.146;17.162;2023-07-20T09:33:43;99657.04;;;24.91;52.72
38806;BME280;25635;51.146;17.162;2023-07-20T09:36:12;99658.97;;;24.77;53.24
38806;BME280;25635;51.146;17.162;2023-07-20T09:38:40;99658.20;;;24.74;53.79
38806;BME280;25635;51.146;17.162;2023-07-20T09:41:07;99653.20;;;24.78;53.15
38806;BME280;25635;51.146;17.162;2023-07-20T09:43:36;99652.95;;;24.72;52.48
38806;BME280;25635;51.146;17.162;2023-07-20T09:46:02;99653.89;;;24.67;53.53
38806;BME280;25635;51.146;17.162;2023-07-20T09:48:29;99651.92;;;24.81;53.60
38806;BME280;25635;51.146;17.162;2023-07-20T09:50:56;99648.84;;;24.98;52.34
38806;BME280;25635;51.146;17.162;2023-07-20T09:53:24;99648.77;;;25.08;52.19
38806;BME280;25635;51.146;17.162;2023-07-20T09:55:52;99648.53;;;25.26;52.67
38806;BME280;25635;51.146;17.162;2023-07-20T09:58:18;99650.52;;;25.48;51.51
38806;BME280;25635;51.146;17.162;2023-07-20T10:00:46;99651.94;;;25.75;51.66
38806;BME280;25635;51.146;17.162;2023-07-20T10:03:18;99649.41;;;25.96;50.71
38806;BME280;25635;51.146;17.162;2023-07-20T10:06:01;99649.96;;;26.12;49.32
38806;BME280;25635;51.146;17.162;2023-07-20T10:08:32;99644.38;;;26.31;49.81
38806;BME280;25635;51.146;17.162;2023-07-20T10:11:02;99638.05;;;26.56;48.48
38806;BME280;25635;51.146;17.162;2023-07-20T10:13:29;99638.84;;;26.71;48.32
38806;BME280;25635;51.146;17.162;2023-07-20T10:16:03;99635.56;;;26.93;47.64
38806;BME280;25635;51.146;17.162;2023-07-20T10:19:06;99642.02;;;27.07;47.32
38806;BME280;25635;51.146;17.162;2023-07-20T10:21:43;99632.45;;;27.25;45.54
38806;BME280;25635;51.146;17.162;2023-07-20T10:24:13;99629.61;;;27.31;46.77
38806;BME280;25635;51.146;17.162;2023-07-20T10:26:40;99625.67;;;27.50;46.15
38806;BME280;25635;51.146;17.162;2023-07-20T10:29:06;99623.61;;;27.71;45.80
38806;BME280;25635;51.146;17.162;2023-07-20T10:31:33;99620.50;;;27.84;45.08
38806;BME280;25635;51.146;17.162;2023-07-20T10:34:00;99620.87;;;27.90;45.46
38806;BME280;25635;51.146;17.162;2023-07-20T10:36:27;99623.73;;;28.16;45.03
38806;BME280;25635;51.146;17.162;2023-07-20T10:38:55;99625.04;;;28.39;45.25
38806;BME280;25635;51.146;17.162;2023-07-20T10:41:28;99619.83;;;28.65;44.96
38806;BME280;25635;51.146;17.162;2023-07-20T10:44:07;99622.63;;;28.91;44.40
38806;BME280;25635;51.146;17.162;2023-07-20T10:49:07;99618.63;;;29.30;43.59
38806;BME280;25635;51.146;17.162;2023-07-20T10:51:45;99616.54;;;29.54;43.01
38806;BME280;25635;51.146;17.162;2023-07-20T10:56:41;99607.70;;;29.75;41.73
38806;BME280;25635;51.146;17.162;2023-07-20T10:59:19;99605.66;;;29.79;42.37
38806;BME280;25635;51.146;17.162;2023-07-20T11:01:46;99601.13;;;29.83;41.76
38806;BME280;25635;51.146;17.162;2023-07-20T11:04:13;99599.21;;;29.95;42.06
38806;BME280;25635;51.146;17.162;2023-07-20T11:06:42;99603.99;;;30.10;40.67
38806;BME280;25635;51.146;17.162;2023-07-20T11:09:09;99601.98;;;30.14;40.91
38806;BME280;25635;51.146;17.162;2023-07-20T11:11:38;99600.45;;;30.20;39.91
38806;BME280;25635;51.146;17.162;2023-07-20T11:14:21;99594.80;;;30.20;40.27
38806;BME280;25635;51.146;17.162;2023-07-20T11:16:48;99587.89;;;30.33;39.56
38806;BME280;25635;51.146;17.162;2023-07-20T11:19:18;99586.46;;;30.38;38.77
38806;BME280;25635;51.146;17.162;2023-07-20T11:21:46;99589.21;;;30.47;38.40
38806;BME280;25635;51.146;17.162;2023-07-20T11:24:13;99587.95;;;30.67;38.91
38806;BME280;25635;51.146;17.162;2023-07-20T11:26:40;99589.00;;;30.77;37.60
38806;BME280;25635;51.146;17.162;2023-07-20T11:29:06;99587.85;;;30.66;37.78
38806;BME280;25635;51.146;17.162;2023-07-20T11:31:40;99595.88;;;30.70;38.18
38806;BME280;25635;51.146;17.162;2023-07-20T11:34:16;99603.36;;;30.79;37.80
38806;BME280;25635;51.146;17.162;2023-07-20T11:36:50;99612.48;;;30.55;37.39
38806;BME280;25635;51.146;17.162;2023-07-20T11:39:18;99629.89;;;29.99;38.57
38806;BME280;25635;51.146;17.162;2023-07-20T11:41:48;99630.52;;;29.31;39.99
38806;BME280;25635;51.146;17.162;2023-07-20T11:44:41;99633.46;;;28.78;40.23
38806;BME280;25635;51.146;17.162;2023-07-20T11:47:09;99638.34;;;28.29;41.20
38806;BME280;25635;51.146;17.162;2023-07-20T11:49:40;99632.67;;;27.94;40.99
38806;BME280;25635;51.146;17.162;2023-07-20T11:52:16;99636.14;;;27.59;41.39
38806;BME280;25635;51.146;17.162;2023-07-20T11:54:43;99640.36;;;27.20;41.52
38806;BME280;25635;51.146;17.162;2023-07-20T11:57:17;99641.70;;;26.75;42.43
38806;BME280;25635;51.146;17.162;2023-07-20T11:59:56;99646.75;;;26.42;43.24
38806;BME280;25635;51.146;17.162;2023-07-20T12:02:23;99648.86;;;26.12;44.65
38806;BME280;25635;51.146;17.162;2023-07-20T12:04:52;99660.91;;;25.89;45.62
38806;BME280;25635;51.146;17.162;2023-07-20T12:07:19;99665.30;;;25.55;46.23
38806;BME280;25635;51.146;17.162;2023-07-20T12:10:09;99667.00;;;25.24;47.07
38806;BME280;25635;51.146;17.162;2023-07-20T12:12:43;99663.56;;;24.87;47.81
38806;BME280;25635;51.146;17.162;2023-07-20T12:15:23;99670.14;;;24.59;49.11
38806;BME280;25635;51.146;17.162;2023-07-20T12:17:53;99669.52;;;24.46;49.74
38806;BME280;25635;51.146;17.162;2023-07-20T12:20:30;99667.77;;;24.30;50.33
38806;BME280;25635;51.146;17.162;2023-07-20T12:23:17;99668.10;;;24.16;50.53
38806;BME280;25635;51.146;17.162;2023-07-20T12:25:46;99661.88;;;24.06;50.86
38806;BME280;25635;51.146;17.162;2023-07-20T12:28:17;99657.78;;;23.92;50.72
38806;BME280;25635;51.146;17.162;2023-07-20T12:30:44;99660.94;;;23.74;50.87
38806;BME280;25635;51.146;17.162;2023-07-20T12:33:11;99653.47;;;23.64;51.71
38806;BME280;25635;51.146;17.162;2023-07-20T12:35:41;99651.95;;;23.60;52.11
38806;BME280;25635;51.146;17.162;2023-07-20T12:38:09;99650.50;;;23.66;52.57
38806;BME280;25635;51.146;17.162;2023-07-20T12:40:35;99644.46;;;23.81;52.73
38806;BME280;25635;51.146;17.162;2023-07-20T12:43:02;99643.16;;;23.87;52.36
38806;BME280;25635;51.146;17.162;2023-07-20T12:45:28;99641.10;;;23.91;51.24
38806;BME280;25635;51.146;17.162;2023-07-20T12:47:53;99641.55;;;24.02;51.41
38806;BME280;25635;51.146;17.162;2023-07-20T12:50:19;99639.51;;;24.25;51.79
38806;BME280;25635;51.146;17.162;2023-07-20T12:52:45;99642.97;;;24.43;50.61
38806;BME280;25635;51.146;17.162;2023-07-20T12:55:11;99646.20;;;24.60;51.28
38806;BME280;25635;51.146;17.162;2023-07-20T12:57:37;99651.19;;;24.84;50.47
38806;BME280;25635;51.146;17.162;2023-07-20T13:00:09;99649.48;;;25.06;50.73
38806;BME280;25635;51.146;17.162;2023-07-20T13:02:36;99644.52;;;25.27;49.85
38806;BME280;25635;51.146;17.162;2023-07-20T13:05:02;99646.14;;;25.43;49.25
38806;BME280;25635;51.146;17.162;2023-07-20T13:07:36;99648.07;;;25.52;49.65
38806;BME280;25635;51.146;17.162;2023-07-20T13:10:03;99650.88;;;25.60;48.88